sensor_id;sensor_type;location;lat;lon;timestamp;P1;durP1;ratioP1;P2;durP2;ratioP2
54263;SDS011;40178;53.042;6.406;2022-09-13T00:01:28;30.58;;;18.27;;
54263;SDS011;40178;53.042;6.406;2022-09-13T00:03:54;32.38;;;19.42;;
54263;SDS011;40178;53.042;6.406;2022-09-13T00:06:20;32.78;;;20.58;;
54263;SDS011;40178;53.042;6.406;2022-09-13T00:08:46;32.13;;;19.17;;
54263;SDS011;40178;53.042;6.406;2022-09-13T00:11:16;30.92;;;19.40;;
54263;SDS011;40178;53.042;6.406;2022-09-13T00:13:46;35.30;;;20.52;;
54263;SDS011;40178;53.042;6.406;2022-09-13T00:16:12;35.50;;;21.02;;
54263;SDS011;40178;53.042;6.406;2022-09-13T00:18:39;34.33;;;20.50;;
54263;SDS011;40178;53.042;6.406;2022-09-13T00:21:06;30.95;;;20.25;;
54263;SDS011;40178;53.042;6.406;2022-09-13T00:23:37;31.33;;;19.17;;
54263;SDS011;40178;53.042;6.406;2022-09-13T00:26:07;31.90;;;18.63;;
54263;SDS011;40178;53.042;6.406;2022-09-13T00:28:34;30.75;;;18.13;;
54263;SDS011;40178;53.042;6.406;2022-09-13T00:31:00;27.77;;;18.67;;
54263;SDS011;40178;53.042;6.406;2022-09-13T00:33:27;25.25;;;17.02;;
54263;SDS011;40178;53.042;6.406;2022-09-13T00:35:53;28.17;;;18.10;;
54263;SDS011;40178;53.042;6.406;2022-09-13T00:38:18;29.20;;;18.02;;
54263;SDS011;40178;53.042;6.406;2022-09-13T00:40:44;30.95;;;17.40;;
54263;SDS011;40178;53.042;6.406;2022-09-13T00:43:20;28.77;;;16.77;;
54263;SDS011;40178;53.042;6.406;2022-09-13T00:46:03;30.15;;;16.63;;
54263;SDS011;40178;53.042;6.406;2022-09-13T00:48:30;27.88;;;16.75;;
54263;SDS011;40178;53.042;6.406;2022-09-13T00:50:58;33.05;;;17.05;;
54263;SDS011;40178;53.042;6.406;2022-09-13T00:53:33;25.42;;;16.27;;
54263;SDS011;40178;53.042;6.406;2022-09-13T00:56:06;27.25;;;16.08;;
54263;SDS011;40178;53.042;6.406;2022-09-13T00:58:37;27.77;;;15.05;;
54263;SDS011;40178;53.042;6.406;2022-09-13T01:01:12;28.95;;;16.23;;
54263;SDS011;40178;53.042;6.406;2022-09-13T01:03:39;25.95;;;15.40;;
54263;SDS011;40178;53.042;6.406;2022-09-13T01:06:07;28.60;;;16.67;;
54263;SDS011;40178;53.042;6.406;2022-09-13T01:08:35;26.85;;;15.95;;
54263;SDS011;40178;53.042;6.406;2022-09-13T01:11:02;25.83;;;14.77;;
54263;SDS011;40178;53.042;6.406;2022-09-13T01:13:36;29.60;;;15.40;;
54263;SDS011;40178;53.042;6.406;2022-09-13T01:16:03;26.17;;;16.35;;
54263;SDS011;40178;53.042;6.406;2022-09-13T01:18:29;27.83;;;15.30;;
54263;SDS011;40178;53.042;6.406;2022-09-13T01:23:44;24.80;;;15.98;;
54263;SDS011;40178;53.042;6.406;2022-09-13T01:29:39;25.95;;;14.68;;
54263;SDS011;40178;53.042;6.406;2022-09-13T01:37:51;25.35;;;15.32;;
54263;SDS011;40178;53.042;6.406;2022-09-13T01:43:14;30.25;;;16.25;;
54263;SDS011;40178;53.042;6.406;2022-09-13T01:46:07;27.35;;;16.02;;
54263;SDS011;40178;53.042;6.406;2022-09-13T01:51:25;26.30;;;16.30;;
54263;SDS011;40178;53.042;6.406;2022-09-13T01:54:01;26.63;;;15.30;;
54263;SDS011;40178;53.042;6.406;2022-09-13T01:56:38;28.92;;;17.33;;
54263;SDS011;40178;53.042;6.406;2022-09-13T01:59:15;28.20;;;15.32;;
54263;SDS011;40178;53.042;6.406;2022-09-13T02:02:08;27.98;;;16.48;;
54263;SDS011;40178;53.042;6.406;2022-09-13T02:04:37;25.67;;;15.65;;
54263;SDS011;40178;53.042;6.406;2022-09-13T02:07:20;29.20;;;16.58;;
54263;SDS011;40178;53.042;6.406;2022-09-13T02:09:53;28.60;;;16.35;;
54263;SDS011;40178;53.042;6.406;2022-09-13T02:12:24;25.83;;;16.23;;
54263;SDS011;40178;53.042;6.406;2022-09-13T02:15:00;27.85;;;16.90;;
54263;SDS011;40178;53.042;6.406;2022-09-13T02:17:42;28.00;;;16.83;;
54263;SDS011;40178;53.042;6.406;2022-09-13T02:20:20;25.38;;;15.63;;
54263;SDS011;40178;53.042;6.406;2022-09-13T02:22:52;26.63;;;15.43;;
54263;SDS011;40178;53.042;6.406;2022-09-13T02:25:21;26.33;;;15.77;;
54263;SDS011;40178;53.042;6.406;2022-09-13T02:27:50;27.02;;;16.45;;
54263;SDS011;40178;53.042;6.406;2022-09-13T02:30:23;28.50;;;16.90;;
54263;SDS011;40178;53.042;6.406;2022-09-13T02:35:29;32.30;;;17.00;;
54263;SDS011;40178;53.042;6.406;2022-09-13T02:38:03;27.58;;;16.17;;
54263;SDS011;40178;53.042;6.406;2022-09-13T02:40:44;29.48;;;16.92;;
54263;SDS011;40178;53.042;6.406;2022-09-13T02:45:52;29.55;;;15.88;;
54263;SDS011;40178;53.042;6.406;2022-09-13T02:48:35;29.30;;;16.75;;
54263;SDS011;40178;53.042;6.406;2022-09-13T02:51:12;30.23;;;16.27;;
54263;SDS011;40178;53.042;6.406;2022-09-13T02:53:49;30.27;;;17.58;;
54263;SDS011;40178;53.042;6.406;2022-09-13T02:59:03;29.40;;;17.80;;
54263;SDS011;40178;53.042;6.406;2022-09-13T03:01:37;29.75;;;17.15;;
54263;SDS011;40178;53.042;6.406;2022-09-13T03:04:04;29.15;;;16.30;;
54263;SDS011;40178;53.042;6.406;2022-09-13T03:06:30;33.08;;;17.17;;
54263;SDS011;40178;53.042;6.406;2022-09-13T03:08:58;29.58;;;17.33;;
54263;SDS011;40178;53.042;6.406;2022-09-13T03:19:59;27.80;;;16.10;;
54263;SDS011;40178;53.042;6.406;2022-09-13T03:22:42;32.08;;;17.50;;
54263;SDS011;40178;53.042;6.406;2022-09-13T03:25:29;26.08;;;15.20;;
54263;SDS011;40178;53.042;6.406;2022-09-13T03:31:11;28.35;;;16.65;;
54263;SDS011;40178;53.042;6.406;2022-09-13T03:36:54;29.17;;;16.25;;
54263;SDS011;40178;53.042;6.406;2022-09-13T03:39:40;25.67;;;15.20;;
54263;SDS011;40178;53.042;6.406;2022-09-13T03:42:15;28.75;;;15.00;;
54263;SDS011;40178;53.042;6.406;2022-09-13T03:44:46;28.65;;;15.10;;
54263;SDS011;40178;53.042;6.406;2022-09-13T03:47:14;25.45;;;14.05;;
54263;SDS011;40178;53.042;6.406;2022-09-13T03:49:41;26.02;;;13.77;;
54263;SDS011;40178;53.042;6.406;2022-09-13T03:52:08;24.80;;;13.15;;
54263;SDS011;40178;53.042;6.406;2022-09-13T03:54:35;21.20;;;12.23;;
54263;SDS011;40178;53.042;6.406;2022-09-13T03:57:10;18.17;;;11.85;;
54263;SDS011;40178;53.042;6.406;2022-09-13T04:02:04;20.23;;;10.77;;
54263;SDS011;40178;53.042;6.406;2022-09-13T04:04:34;19.42;;;10.48;;
54263;SDS011;40178;53.042;6.406;2022-09-13T04:06:59;16.30;;;9.30;;
54263;SDS011;40178;53.042;6.406;2022-09-13T04:09:27;16.33;;;9.48;;
54263;SDS011;40178;53.042;6.406;2022-09-13T04:11:53;17.42;;;8.75;;
54263;SDS011;40178;53.042;6.406;2022-09-13T04:14:18;16.13;;;9.20;;
54263;SDS011;40178;53.042;6.406;2022-09-13T04:16:44;16.67;;;9.25;;
54263;SDS011;40178;53.042;6.406;2022-09-13T04:19:10;14.32;;;8.02;;
54263;SDS011;40178;53.042;6.406;2022-09-13T04:21:35;14.48;;;7.78;;
54263;SDS011;40178;53.042;6.406;2022-09-13T04:24:02;14.65;;;8.57;;
54263;SDS011;40178;53.042;6.406;2022-09-13T04:26:27;14.13;;;7.40;;
54263;SDS011;40178;53.042;6.406;2022-09-13T04:28:53;16.67;;;8.60;;
54263;SDS011;40178;53.042;6.406;2022-09-13T04:31:19;11.50;;;6.70;;
54263;SDS011;40178;53.042;6.406;2022-09-13T04:33:44;13.05;;;6.43;;
54263;SDS011;40178;53.042;6.406;2022-09-13T04:36:10;12.35;;;6.50;;
54263;SDS011;40178;53.042;6.406;2022-09-13T04:38:35;10.70;;;5.32;;
54263;SDS011;40178;53.042;6.406;2022-09-13T04:41:01;11.05;;;6.53;;
54263;SDS011;40178;53.042;6.406;2022-09-13T04:43:27;9.65;;;5.28;;
54263;SDS011;40178;53.042;6.406;2022-09-13T04:45:53;10.10;;;5.50;;
54263;SDS011;40178;53.042;6.406;2022-09-13T04:48:19;10.05;;;5.10;;
54263;SDS011;40178;53.042;6.406;2022-09-13T04:50:44;8.68;;;4.18;;
54263;SDS011;40178;53.042;6.406;2022-09-13T04:53:10;9.20;;;4.18;;
54263;SDS011;40178;53.042;6.406;2022-09-13T04:55:35;7.57;;;3.50;;
54263;SDS011;40178;53.042;6.406;2022-09-13T04:58:01;7.13;;;3.30;;
54263;SDS011;40178;53.042;6.406;2022-09-13T05:00:28;8.70;;;3.72;;
54263;SDS011;40178;53.042;6.406;2022-09-13T05:02:54;7.18;;;3.10;;
54263;SDS011;40178;53.042;6.406;2022-09-13T05:05:21;7.22;;;2.72;;
54263;SDS011;40178;53.042;6.406;2022-09-13T05:07:50;6.65;;;2.70;;
54263;SDS011;40178;53.042;6.406;2022-09-13T05:10:17;8.70;;;2.67;;
54263;SDS011;40178;53.042;6.406;2022-09-13T05:12:42;8.43;;;2.90;;
54263;SDS011;40178;53.042;6.406;2022-09-13T05:15:08;5.53;;;2.65;;
54263;SDS011;40178;53.042;6.406;2022-09-13T05:17:34;7.65;;;2.72;;
54263;SDS011;40178;53.042;6.406;2022-09-13T05:20:00;10.52;;;3.22;;
54263;SDS011;40178;53.042;6.406;2022-09-13T05:22:26;7.60;;;3.38;;
54263;SDS011;40178;53.042;6.406;2022-09-13T05:24:51;7.68;;;2.97;;
54263;SDS011;40178;53.042;6.406;2022-09-13T05:27:17;9.90;;;3.58;;
54263;SDS011;40178;53.042;6.406;2022-09-13T05:29:42;7.80;;;2.50;;
54263;SDS011;40178;53.042;6.406;2022-09-13T05:32:08;6.50;;;3.03;;
54263;SDS011;40178;53.042;6.406;2022-09-13T05:34:33;8.32;;;2.95;;
54263;SDS011;40178;53.042;6.406;2022-09-13T05:36:59;5.88;;;2.40;;
54263;SDS011;40178;53.042;6.406;2022-09-13T05:39:24;6.43;;;2.40;;
54263;SDS011;40178;53.042;6.406;2022-09-13T05:41:50;6.65;;;2.53;;
54263;SDS011;40178;53.042;6.406;2022-09-13T05:44:16;4.95;;;2.10;;
54263;SDS011;40178;53.042;6.406;2022-09-13T05:46:41;10.13;;;2.85;;
54263;SDS011;40178;53.042;6.406;2022-09-13T05:49:11;3.95;;;2.13;;
54263;SDS011;40178;53.042;6.406;2022-09-13T05:51:37;6.85;;;2.63;;
54263;SDS011;40178;53.042;6.406;2022-09-13T05:54:03;6.32;;;2.42;;
54263;SDS011;40178;53.042;6.406;2022-09-13T05:56:29;8.43;;;2.90;;
54263;SDS011;40178;53.042;6.406;2022-09-13T05:58:56;7.50;;;2.47;;
54263;SDS011;40178;53.042;6.406;2022-09-13T06:01:24;6.88;;;2.80;;
54263;SDS011;40178;53.042;6.406;2022-09-13T06:03:51;10.10;;;3.08;;
54263;SDS011;40178;53.042;6.406;2022-09-13T06:06:19;8.20;;;2.67;;
54263;SDS011;40178;53.042;6.406;2022-09-13T06:08:46;7.45;;;2.70;;
54263;SDS011;40178;53.042;6.406;2022-09-13T06:11:13;7.45;;;2.38;;
54263;SDS011;40178;53.042;6.406;2022-09-13T06:13:39;4.82;;;2.55;;
54263;SDS011;40178;53.042;6.406;2022-09-13T06:16:07;7.15;;;2.35;;
54263;SDS011;40178;53.042;6.406;2022-09-13T06:18:34;5.72;;;2.10;;
54263;SDS011;40178;53.042;6.406;2022-09-13T06:21:06;7.35;;;2.75;;
54263;SDS011;40178;53.042;6.406;2022-09-13T06:23:34;6.80;;;2.80;;
54263;SDS011;40178;53.042;6.406;2022-09-13T06:26:03;7.15;;;2.55;;
54263;SDS011;40178;53.042;6.406;2022-09-13T06:28:30;6.30;;;2.67;;
54263;SDS011;40178;53.042;6.406;2022-09-13T06:31:14;8.43;;;2.60;;
54263;SDS011;40178;53.042;6.406;2022-09-13T06:33:41;6.80;;;2.10;;
54263;SDS011;40178;53.042;6.406;2022-09-13T06:36:09;8.10;;;2.47;;
54263;SDS011;40178;53.042;6.406;2022-09-13T06:38:40;9.48;;;2.97;;
54263;SDS011;40178;53.042;6.406;2022-09-13T06:41:07;7.13;;;2.40;;
54263;SDS011;40178;53.042;6.406;2022-09-13T06:43:34;11.55;;;2.63;;
54263;SDS011;40178;53.042;6.406;2022-09-13T06:46:08;6.90;;;2.28;;
54263;SDS011;40178;53.042;6.406;2022-09-13T06:51:04;5.75;;;2.40;;
54263;SDS011;40178;53.042;6.406;2022-09-13T06:53:32;9.48;;;3.22;;
54263;SDS011;40178;53.042;6.406;2022-09-13T06:56:00;8.02;;;2.33;;
54263;SDS011;40178;53.042;6.406;2022-09-13T06:58:26;7.47;;;2.20;;
54263;SDS011;40178;53.042;6.406;2022-09-13T07:00:53;4.68;;;2.22;;
54263;SDS011;40178;53.042;6.406;2022-09-13T07:03:19;9.60;;;2.75;;
54263;SDS011;40178;53.042;6.406;2022-09-13T07:05:44;5.03;;;1.92;;
54263;SDS011;40178;53.042;6.406;2022-09-13T07:08:10;7.28;;;2.15;;
54263;SDS011;40178;53.042;6.406;2022-09-13T07:10:35;9.45;;;2.35;;
54263;SDS011;40178;53.042;6.406;2022-09-13T07:13:01;5.40;;;1.70;;
54263;SDS011;40178;53.042;6.406;2022-09-13T07:15:27;5.60;;;1.98;;
54263;SDS011;40178;53.042;6.406;2022-09-13T07:17:52;4.60;;;1.63;;
54263;SDS011;40178;53.042;6.406;2022-09-13T07:20:18;7.93;;;2.10;;
54263;SDS011;40178;53.042;6.406;2022-09-13T07:22:43;7.70;;;1.98;;
54263;SDS011;40178;53.042;6.406;2022-09-13T07:25:09;5.05;;;1.20;;
54263;SDS011;40178;53.042;6.406;2022-09-13T07:27:34;6.70;;;1.23;;
54263;SDS011;40178;53.042;6.406;2022-09-13T07:30:00;5.40;;;1.40;;
54263;SDS011;40178;53.042;6.406;2022-09-13T07:32:25;4.57;;;1.00;;
54263;SDS011;40178;53.042;6.406;2022-09-13T07:34:51;4.60;;;1.55;;
54263;SDS011;40178;53.042;6.406;2022-09-13T07:37:16;8.32;;;1.88;;
54263;SDS011;40178;53.042;6.406;2022-09-13T07:39:42;3.72;;;1.02;;
54263;SDS011;40178;53.042;6.406;2022-09-13T07:42:07;7.38;;;1.17;;
54263;SDS011;40178;53.042;6.406;2022-09-13T07:44:33;3.08;;;0.88;;
54263;SDS011;40178;53.042;6.406;2022-09-13T07:46:59;8.02;;;1.10;;
54263;SDS011;40178;53.042;6.406;2022-09-13T07:49:24;6.07;;;0.80;;
54263;SDS011;40178;53.042;6.406;2022-09-13T07:51:50;4.80;;;1.77;;
54263;SDS011;40178;53.042;6.406;2022-09-13T07:54:16;3.67;;;1.15;;
54263;SDS011;40178;53.042;6.406;2022-09-13T07:56:42;2.67;;;0.90;;
54263;SDS011;40178;53.042;6.406;2022-09-13T07:59:11;2.83;;;0.55;;
54263;SDS011;40178;53.042;6.406;2022-09-13T08:04:09;2.80;;;0.60;;
54263;SDS011;40178;53.042;6.406;2022-09-13T08:06:37;4.28;;;0.80;;
54263;SDS011;40178;53.042;6.406;2022-09-13T08:09:03;6.20;;;0.70;;
54263;SDS011;40178;53.042;6.406;2022-09-13T08:11:34;4.25;;;0.63;;
54263;SDS011;40178;53.042;6.406;2022-09-13T08:14:08;3.85;;;0.75;;
54263;SDS011;40178;53.042;6.406;2022-09-13T08:16:36;2.97;;;0.68;;
54263;SDS011;40178;53.042;6.406;2022-09-13T08:19:03;2.78;;;0.60;;
54263;SDS011;40178;53.042;6.406;2022-09-13T08:21:33;3.97;;;0.70;;
54263;SDS011;40178;53.042;6.406;2022-09-13T08:24:00;3.60;;;0.63;;
54263;SDS011;40178;53.042;6.406;2022-09-13T08:26:30;1.77;;;0.50;;
54263;SDS011;40178;53.042;6.406;2022-09-13T08:28:58;4.20;;;0.60;;
54263;SDS011;40178;53.042;6.406;2022-09-13T08:31:25;4.82;;;0.60;;
54263;SDS011;40178;53.042;6.406;2022-09-13T08:33:51;2.38;;;0.40;;
54263;SDS011;40178;53.042;6.406;2022-09-13T08:36:18;5.57;;;0.70;;
54263;SDS011;40178;53.042;6.406;2022-09-13T08:38:48;3.42;;;0.52;;
54263;SDS011;40178;53.042;6.406;2022-09-13T08:44:05;2.80;;;0.50;;
54263;SDS011;40178;53.042;6.406;2022-09-13T08:46:34;3.83;;;0.50;;
54263;SDS011;40178;53.042;6.406;2022-09-13T08:49:05;2.92;;;0.45;;
54263;SDS011;40178;53.042;6.406;2022-09-13T08:51:45;2.45;;;1.02;;
54263;SDS011;40178;53.042;6.406;2022-09-13T08:54:14;5.50;;;0.60;;
54263;SDS011;40178;53.042;6.406;2022-09-13T08:56:43;4.82;;;0.60;;
54263;SDS011;40178;53.042;6.406;2022-09-13T09:04:55;3.03;;;0.50;;
54263;SDS011;40178;53.042;6.406;2022-09-13T09:07:36;2.00;;;0.55;;
54263;SDS011;40178;53.042;6.406;2022-09-13T09:10:11;3.00;;;0.50;;
54263;SDS011;40178;53.042;6.406;2022-09-13T09:15:27;4.20;;;0.60;;
54263;SDS011;40178;53.042;6.406;2022-09-13T09:17:59;5.30;;;0.60;;
54263;SDS011;40178;53.042;6.406;2022-09-13T09:25:54;5.88;;;0.70;;
54263;SDS011;40178;53.042;6.406;2022-09-13T09:28:22;2.30;;;0.35;;
54263;SDS011;40178;53.042;6.406;2022-09-13T09:30:53;4.70;;;0.40;;
54263;SDS011;40178;53.042;6.406;2022-09-13T09:33:51;3.70;;;0.40;;
54263;SDS011;40178;53.042;6.406;2022-09-13T09:39:03;4.30;;;0.52;;
54263;SDS011;40178;53.042;6.406;2022-09-13T09:41:33;3.78;;;0.32;;
54263;SDS011;40178;53.042;6.406;2022-09-13T09:44:09;1.85;;;0.40;;
54263;SDS011;40178;53.042;6.406;2022-09-13T09:46:41;3.90;;;0.38;;
54263;SDS011;40178;53.042;6.406;2022-09-13T09:49:18;2.42;;;0.47;;
54263;SDS011;40178;53.042;6.406;2022-09-13T09:52:07;5.10;;;0.50;;
54263;SDS011;40178;53.042;6.406;2022-09-13T09:54:36;4.32;;;0.73;;
54263;SDS011;40178;53.042;6.406;2022-09-13T09:57:04;3.90;;;0.68;;
54263;SDS011;40178;53.042;6.406;2022-09-13T09:59:32;1.73;;;0.40;;
54263;SDS011;40178;53.042;6.406;2022-09-13T10:02:00;3.00;;;0.38;;
54263;SDS011;40178;53.042;6.406;2022-09-13T10:04:38;4.47;;;0.57;;
54263;SDS011;40178;53.042;6.406;2022-09-13T10:07:24;3.50;;;0.50;;
54263;SDS011;40178;53.042;6.406;2022-09-13T10:09:56;3.70;;;0.35;;
54263;SDS011;40178;53.042;6.406;2022-09-13T10:12:29;4.30;;;0.50;;
54263;SDS011;40178;53.042;6.406;2022-09-13T10:17:44;3.80;;;0.60;;
54263;SDS011;40178;53.042;6.406;2022-09-13T10:20:26;3.65;;;0.60;;
54263;SDS011;40178;53.042;6.406;2022-09-13T10:26:04;5.47;;;0.90;;
54263;SDS011;40178;53.042;6.406;2022-09-13T10:28:35;4.07;;;0.60;;
54263;SDS011;40178;53.042;6.406;2022-09-13T10:31:07;3.63;;;0.50;;
54263;SDS011;40178;53.042;6.406;2022-09-13T10:33:36;4.75;;;0.50;;
54263;SDS011;40178;53.042;6.406;2022-09-13T10:36:15;4.63;;;0.40;;
54263;SDS011;40178;53.042;6.406;2022-09-13T10:39:02;5.28;;;0.40;;
54263;SDS011;40178;53.042;6.406;2022-09-13T10:41:35;5.90;;;0.40;;
54263;SDS011;40178;53.042;6.406;2022-09-13T10:44:05;2.67;;;0.65;;
54263;SDS011;40178;53.042;6.406;2022-09-13T10:46:50;4.50;;;0.38;;
54263;SDS011;40178;53.042;6.406;2022-09-13T10:57:50;5.68;;;0.60;;
54263;SDS011;40178;53.042;6.406;2022-09-13T11:03:47;4.68;;;0.55;;
54263;SDS011;40178;53.042;6.406;2022-09-13T11:06:57;5.80;;;0.90;;
54263;SDS011;40178;53.042;6.406;2022-09-13T11:23:26;3.00;;;0.40;;
54263;SDS011;40178;53.042;6.406;2022-09-13T11:29:32;2.25;;;0.40;;
54263;SDS011;40178;53.042;6.406;2022-09-13T11:31:41;4.43;;;0.60;;
54263;SDS011;40178;53.042;6.406;2022-09-13T11:37:15;2.63;;;0.35;;
54263;SDS011;40178;53.042;6.406;2022-09-13T11:39:59;4.32;;;0.50;;
54263;SDS011;40178;53.042;6.406;2022-09-13T11:42:47;4.85;;;0.60;;
54263;SDS011;40178;53.042;6.406;2022-09-13T11:45:21;1.25;;;0.30;;
54263;SDS011;40178;53.042;6.406;2022-09-13T11:55:54;3.38;;;0.52;;
54263;SDS011;40178;53.042;6.406;2022-09-13T11:58:36;4.32;;;0.80;;
54263;SDS011;40178;53.042;6.406;2022-09-13T12:01:38;4.23;;;0.50;;
54263;SDS011;40178;53.042;6.406;2022-09-13T12:04:11;3.50;;;0.50;;
54263;SDS011;40178;53.042;6.406;2022-09-13T12:07:10;4.82;;;0.50;;
54263;SDS011;40178;53.042;6.406;2022-09-13T12:09:39;2.83;;;0.43;;
54263;SDS011;40178;53.042;6.406;2022-09-13T12:12:15;3.45;;;0.50;;
54263;SDS011;40178;53.042;6.406;2022-09-13T12:14:48;3.13;;;0.50;;
54263;SDS011;40178;53.042;6.406;2022-09-13T12:20:02;2.92;;;0.43;;
54263;SDS011;40178;53.042;6.406;2022-09-13T12:22:36;3.38;;;0.30;;
54263;SDS011;40178;53.042;6.406;2022-09-13T12:25:03;2.13;;;0.40;;
54263;SDS011;40178;53.042;6.406;2022-09-13T12:27:47;3.75;;;0.50;;
54263;SDS011;40178;53.042;6.406;2022-09-13T12:30:21;6.18;;;0.40;;
54263;SDS011;40178;53.042;6.406;2022-09-13T12:32:49;3.85;;;0.55;;
54263;SDS011;40178;53.042;6.406;2022-09-13T12:35:30;2.00;;;0.32;;
54263;SDS011;40178;53.042;6.406;2022-09-13T12:43:38;3.65;;;0.68;;
54263;SDS011;40178;53.042;6.406;2022-09-13T12:49:37;4.47;;;0.50;;
54263;SDS011;40178;53.042;6.406;2022-09-13T12:55:35;4.28;;;0.60;;
54263;SDS011;40178;53.042;6.406;2022-09-13T12:58:27;2.42;;;0.50;;
54263;SDS011;40178;53.042;6.406;2022-09-13T13:03:41;5.60;;;0.70;;
54263;SDS011;40178;53.042;6.406;2022-09-13T13:06:31;1.90;;;0.60;;
54263;SDS011;40178;53.042;6.406;2022-09-13T13:12:24;2.40;;;0.50;;
54263;SDS011;40178;53.042;6.406;2022-09-13T13:14:54;4.85;;;0.50;;
54263;SDS011;40178;53.042;6.406;2022-09-13T13:20:46;1.30;;;0.40;;
54263;SDS011;40178;53.042;6.406;2022-09-13T13:23:20;4.65;;;0.40;;
54263;SDS011;40178;53.042;6.406;2022-09-13T13:33:58;3.05;;;0.40;;
54263;SDS011;40178;53.042;6.406;2022-09-13T13:36:30;2.83;;;0.38;;
54263;SDS011;40178;53.042;6.406;2022-09-13T13:39:11;4.90;;;0.60;;
54263;SDS011;40178;53.042;6.406;2022-09-13T13:42:01;7.68;;;0.70;;
54263;SDS011;40178;53.042;6.406;2022-09-13T13:57:31;5.55;;;0.88;;
54263;SDS011;40178;53.042;6.406;2022-09-13T14:07:56;3.75;;;0.70;;
54263;SDS011;40178;53.042;6.406;2022-09-13T14:10:37;6.00;;;0.88;;
54263;SDS011;40178;53.042;6.406;2022-09-13T14:21:20;2.08;;;0.57;;
54263;SDS011;40178;53.042;6.406;2022-09-13T14:23:48;2.13;;;0.50;;
54263;SDS011;40178;53.042;6.406;2022-09-13T14:26:15;6.30;;;0.77;;
54263;SDS011;40178;53.042;6.406;2022-09-13T14:28:42;4.18;;;0.43;;
54263;SDS011;40178;53.042;6.406;2022-09-13T14:31:13;2.97;;;0.45;;
54263;SDS011;40178;53.042;6.406;2022-09-13T14:33:44;3.90;;;0.45;;
54263;SDS011;40178;53.042;6.406;2022-09-13T14:36:15;4.60;;;0.80;;
54263;SDS011;40178;53.042;6.406;2022-09-13T14:38:51;4.85;;;0.70;;
54263;SDS011;40178;53.042;6.406;2022-09-13T14:41:21;2.70;;;0.80;;
54263;SDS011;40178;53.042;6.406;2022-09-13T14:44:07;3.90;;;0.50;;
54263;SDS011;40178;53.042;6.406;2022-09-13T14:46:40;3.47;;;0.60;;
54263;SDS011;40178;53.042;6.406;2022-09-13T14:49:22;3.72;;;0.40;;
54263;SDS011;40178;53.042;6.406;2022-09-13T14:51:51;5.35;;;0.57;;
54263;SDS011;40178;53.042;6.406;2022-09-13T14:54:32;4.35;;;0.50;;
54263;SDS011;40178;53.042;6.406;2022-09-13T14:57:40;6.47;;;0.90;;
54263;SDS011;40178;53.042;6.406;2022-09-13T15:02:44;3.90;;;0.60;;
54263;SDS011;40178;53.042;6.406;2022-09-13T15:05:16;9.40;;;0.60;;
54263;SDS011;40178;53.042;6.406;2022-09-13T15:07:44;4.05;;;0.30;;
54263;SDS011;40178;53.042;6.406;2022-09-13T15:12:36;3.55;;;0.50;;
54263;SDS011;40178;53.042;6.406;2022-09-13T15:21:35;3.47;;;0.60;;
54263;SDS011;40178;53.042;6.406;2022-09-13T15:23:42;4.85;;;0.93;;
54263;SDS011;40178;53.042;6.406;2022-09-13T15:26:19;5.50;;;0.55;;
54263;SDS011;40178;53.042;6.406;2022-09-13T15:28:52;5.82;;;0.60;;
54263;SDS011;40178;53.042;6.406;2022-09-13T15:36:41;4.65;;;0.50;;
54263;SDS011;40178;53.042;6.406;2022-09-13T15:41:34;3.67;;;0.60;;
54263;SDS011;40178;53.042;6.406;2022-09-13T15:44:01;3.17;;;0.45;;
54263;SDS011;40178;53.042;6.406;2022-09-13T15:46:29;6.38;;;1.33;;
54263;SDS011;40178;53.042;6.406;2022-09-13T15:48:56;4.18;;;0.60;;
54263;SDS011;40178;53.042;6.406;2022-09-13T15:52:09;4.55;;;0.60;;
54263;SDS011;40178;53.042;6.406;2022-09-13T15:55:09;4.68;;;0.55;;
54263;SDS011;40178;53.042;6.406;2022-09-13T15:57:36;4.00;;;0.70;;
54263;SDS011;40178;53.042;6.406;2022-09-13T16:00:02;3.97;;;0.57;;
54263;SDS011;40178;53.042;6.406;2022-09-13T16:06:22;3.35;;;0.63;;
54263;SDS011;40178;53.042;6.406;2022-09-13T16:08:47;4.57;;;0.75;;
54263;SDS011;40178;53.042;6.406;2022-09-13T16:11:13;3.33;;;0.65;;
54263;SDS011;40178;53.042;6.406;2022-09-13T16:13:39;3.97;;;0.60;;
54263;SDS011;40178;53.042;6.406;2022-09-13T16:16:04;7.75;;;1.63;;
54263;SDS011;40178;53.042;6.406;2022-09-13T16:18:30;3.22;;;0.80;;
54263;SDS011;40178;53.042;6.406;2022-09-13T16:20:56;3.90;;;0.63;;
54263;SDS011;40178;53.042;6.406;2022-09-13T16:23:22;5.13;;;0.68;;
54263;SDS011;40178;53.042;6.406;2022-09-13T16:25:49;3.58;;;0.50;;
54263;SDS011;40178;53.042;6.406;2022-09-13T16:28:18;8.32;;;0.80;;
54263;SDS011;40178;53.042;6.406;2022-09-13T16:30:46;3.88;;;0.80;;
54263;SDS011;40178;53.042;6.406;2022-09-13T16:33:12;4.53;;;0.60;;
54263;SDS011;40178;53.042;6.406;2022-09-13T16:35:38;5.30;;;0.70;;
54263;SDS011;40178;53.042;6.406;2022-09-13T16:38:03;6.15;;;0.50;;
54263;SDS011;40178;53.042;6.406;2022-09-13T16:40:29;4.45;;;0.70;;
54263;SDS011;40178;53.042;6.406;2022-09-13T16:42:55;4.00;;;0.60;;
54263;SDS011;40178;53.042;6.406;2022-09-13T16:45:20;6.25;;;0.63;;
54263;SDS011;40178;53.042;6.406;2022-09-13T16:47:46;5.18;;;0.70;;
54263;SDS011;40178;53.042;6.406;2022-09-13T16:50:11;6.45;;;1.10;;
54263;SDS011;40178;53.042;6.406;2022-09-13T16:52:38;4.05;;;0.70;;
54263;SDS011;40178;53.042;6.406;2022-09-13T16:55:04;5.25;;;0.55;;
54263;SDS011;40178;53.042;6.406;2022-09-13T16:57:30;3.45;;;0.47;;
54263;SDS011;40178;53.042;6.406;2022-09-13T16:59:56;7.75;;;0.73;;
54263;SDS011;40178;53.042;6.406;2022-09-13T17:02:23;3.80;;;0.40;;
54263;SDS011;40178;53.042;6.406;2022-09-13T17:04:49;6.72;;;0.90;;
54263;SDS011;40178;53.042;6.406;2022-09-13T17:07:15;4.07;;;0.60;;
54263;SDS011;40178;53.042;6.406;2022-09-13T17:09:41;3.20;;;0.55;;
54263;SDS011;40178;53.042;6.406;2022-09-13T17:12:07;4.78;;;0.60;;
54263;SDS011;40178;53.042;6.406;2022-09-13T17:14:34;6.85;;;0.70;;
54263;SDS011;40178;53.042;6.406;2022-09-13T17:17:00;8.63;;;1.00;;
54263;SDS011;40178;53.042;6.406;2022-09-13T17:19:30;11.63;;;0.60;;
54263;SDS011;40178;53.042;6.406;2022-09-13T17:22:00;1.75;;;0.63;;
54263;SDS011;40178;53.042;6.406;2022-09-13T17:24:27;4.35;;;0.68;;
54263;SDS011;40178;53.042;6.406;2022-09-13T17:26:54;7.40;;;0.63;;
54263;SDS011;40178;53.042;6.406;2022-09-13T17:29:21;3.13;;;0.47;;
54263;SDS011;40178;53.042;6.406;2022-09-13T17:31:48;4.55;;;0.70;;
54263;SDS011;40178;53.042;6.406;2022-09-13T17:34:13;5.15;;;0.70;;
54263;SDS011;40178;53.042;6.406;2022-09-13T17:36:40;3.35;;;0.40;;
54263;SDS011;40178;53.042;6.406;2022-09-13T17:39:06;3.17;;;0.95;;
54263;SDS011;40178;53.042;6.406;2022-09-13T17:41:33;4.18;;;0.70;;
54263;SDS011;40178;53.042;6.406;2022-09-13T17:43:58;3.42;;;0.55;;
54263;SDS011;40178;53.042;6.406;2022-09-13T17:46:25;2.55;;;0.50;;
54263;SDS011;40178;53.042;6.406;2022-09-13T17:48:53;4.70;;;0.57;;
54263;SDS011;40178;53.042;6.406;2022-09-13T17:51:20;2.70;;;0.50;;
54263;SDS011;40178;53.042;6.406;2022-09-13T17:53:48;5.85;;;0.70;;
54263;SDS011;40178;53.042;6.406;2022-09-13T17:56:16;1.95;;;0.50;;
54263;SDS011;40178;53.042;6.406;2022-09-13T17:58:45;5.70;;;0.70;;
54263;SDS011;40178;53.042;6.406;2022-09-13T18:01:11;5.55;;;0.50;;
54263;SDS011;40178;53.042;6.406;2022-09-13T18:03:37;7.75;;;0.90;;
54263;SDS011;40178;53.042;6.406;2022-09-13T18:06:04;4.57;;;0.52;;
54263;SDS011;40178;53.042;6.406;2022-09-13T18:08:32;3.53;;;0.63;;
54263;SDS011;40178;53.042;6.406;2022-09-13T18:11:01;3.47;;;0.82;;
54263;SDS011;40178;53.042;6.406;2022-09-13T18:13:44;5.00;;;0.60;;
54263;SDS011;40178;53.042;6.406;2022-09-13T18:16:11;5.28;;;0.93;;
54263;SDS011;40178;53.042;6.406;2022-09-13T18:18:38;5.32;;;0.77;;